Архив погоды в Шимановске

Метеограмма Шимановск
Вторник, 19 Июня
Время местн. Темп Ветер Видим Явления Облачность нижн/средн/верх Атм. давл. Влжн Точка росы ВНГО R Сост. почвы Tg s
Напр Скр Прв ур.ст ур.м изм
18:00 +17.3° С-В 2 - более 50 км - облачно 726 750 +0.6 55% +8.1° 1 км - - - -
15:00 +16.1° С,С-В 3 10 более 50 км - облачно 725 750 -0.2 56% +7.3° 1 км - - - -
12:00 +15.3° С 5 - более 50 км - облачно 726 750 +1 66% +8.9° более 2.5 км - - - -
09:00 +14.1° С,С-В 5 10 более 50 км - облачно с прояснениями 725 749 -0.5 60% +6.4° более 2.5 км 0 Сухая (без трещин) +9° -
06:00 +9° С,С-В 2 - более 50 км - облачно 725 750 -0.2 73% +4.5° более 2.5 км - - - -
03:00 +10.1° С 3 - - - переменная облачность 725 750 -0.5 83% +7.4° более 2.5 км - - - -
00:00 +13.2° С-В 1 - - - облачно 726 750 -0.5 73% +8.4° 1 км - - - -
Понедельник, 18 Июня
Время местн. Темп Ветер Видим Явления Облачность нижн/средн/верх Атм. давл. Влжн Точка росы ВНГО R Сост. почвы Tg s
Напр Скр Прв ур.ст ур.м изм
21:00 +16.7° В,С-В 4 - более 50 км - облачно 726 750 +0.9 61% +9.2° 1 км 0 - - -
18:00 +20° В 3 - более 50 км - переменная облачность 725 749 -0.5 53% +10° 1 км - - - -
15:00 +22.6° С-В 3 - более 50 км - переменная облачность 726 749 -0.9 43% +9.5° 1.5 км - - - -
12:00 +21.3° В,Ю-В 2 - более 50 км - переменная облачность 726 750 -0.4 51% +10.8° 1.5 км - - - -
09:00 +17.8° Ю 1 - более 50 км - облачно 727 751 -0.2 62% +10.5° более 2.5 км 0 Влажная (без луж) +10° -
06:00 +9.2° штиль 0 - 50 км - облачно 727 752 +0.5 97% +8.8° - - - - -
03:00 +11.8° Ю,Ю-З 1 - - - переменная облачность 727 751 +0.4 95% +11° 1 км - - - -
00:00 +13.2° З 2 - - - облачно с прояснениями 726 751 +0.4 85% +10.7° 1 км - - - -
Воскресенье, 17 Июня
Время местн. Темп Ветер Видим Явления Облачность нижн/средн/верх Атм. давл. Влжн Точка росы ВНГО R Сост. почвы Tg s
Напр Скр Прв ур.ст ур.м изм
21:00 +13.6° З,Ю-З 2 - более 50 км - облачно 726 750 +0.1 86% +11.3° 1 км 5 - - -
18:00 +15.3° З,С-З 4 - 50 км - преимущественно облачно 726 750 +1 79% +11.6° 1 км - - - -
15:00 +14.9° З 5 11 более 50 км ливневый дождь облачно 725 749 +0.1 90% +13.3° 1 км - - - -
12:00 +14.7° С-З 5 10 более 50 км ливневый дождь облачно 725 749 +0.4 89% +12.9° 1 км - - - -
09:00 +13.1° З,С-З 5 - 10 км слабый ливневый дождь {морось} облачно 724 749 -0.5 91% +11.6° 1 км 38 Сырая (есть малые или большие лужи) - -
06:00 +11.8° З,С-З 4 - более 50 км - облачно 725 749 +0.2 92% +10.6° 1 км - - - -
03:00 +12.2° С,С-З 3 - - слабый ливневый дождь облачно 724 749 -0.5 95% +11.4° 1 км - - - -
00:00 +12.8° С 2 - - умеренный или сильный ливневый дождь облачно 725 750 -1.3 99% +12.7° 1 км - - - -
Суббота, 16 Июня
Время местн. Темп Ветер Видим Явления Облачность нижн/средн/верх Атм. давл. Влжн Точка росы ВНГО R Сост. почвы Tg s
Напр Скр Прв ур.ст ур.м изм
21:00 +13° С 2 - 10 км слабый ливневый дождь облачно 726 751 -0.9 97% +12.6° 1 км 36 - - -
18:00 +13.5° С,С-В 3 - 10 км умеренный или сильный ливневый дождь облачно 727 752 -1.4 97% +13° 1 км - - - -
15:00 +13° С-В 3 - 10 км умеренный или сильный ливневый дождь {морось} облачно 729 753 -1.7 96% +12.4° 1 км - - - -